createdAt,value
2022-12-01T00:02:55.726Z,5.25
2022-12-01T00:06:15.778Z,5.18
2022-12-01T00:09:36.342Z,5.17
2022-12-01T00:12:43.474Z,5.05
2022-12-01T00:15:45.782Z,4.98
2022-12-01T00:18:53.057Z,4.89
2022-12-01T00:21:55.198Z,4.86
2022-12-01T00:24:57.521Z,4.78
2022-12-01T00:27:59.675Z,4.74
2022-12-01T00:31:08.334Z,4.71
2022-12-01T00:34:25.436Z,4.67
2022-12-01T00:37:29.755Z,4.58
2022-12-01T00:40:31.931Z,4.53
2022-12-01T00:43:34.580Z,4.46
2022-12-01T00:46:36.707Z,4.40
2022-12-01T00:49:39.239Z,4.40
2022-12-01T00:52:41.386Z,4.33
2022-12-01T00:55:43.749Z,4.36
2022-12-01T00:58:45.871Z,4.27
2022-12-01T01:01:49.580Z,4.14
2022-12-01T01:04:53.099Z,4.13
2022-12-01T01:07:55.539Z,4.11
2022-12-01T01:11:00.534Z,4.08
2022-12-01T01:14:03.314Z,4.09
2022-12-01T01:17:05.657Z,3.99
2022-12-01T01:20:08.917Z,3.83
2022-12-01T01:23:11.018Z,3.81
2022-12-01T01:26:17.127Z,3.79
2022-12-01T01:29:19.644Z,3.77
2022-12-01T01:32:22.032Z,3.77
2022-12-01T01:35:24.185Z,3.59
2022-12-01T01:38:27.790Z,3.62
2022-12-01T01:41:30.226Z,3.64
2022-12-01T01:45:12.288Z,3.55
2022-12-01T01:48:15.347Z,3.52
2022-12-01T01:51:22.437Z,3.50
2022-12-01T01:54:29.289Z,3.41
2022-12-01T01:57:33.985Z,3.46
2022-12-01T02:00:37.865Z,3.38
2022-12-01T02:03:42.197Z,3.31
2022-12-01T02:06:44.328Z,3.35
2022-12-01T02:09:47.015Z,3.21
2022-12-01T02:13:16.293Z,3.17
2022-12-01T02:16:27.803Z,3.09
2022-12-01T02:19:56.018Z,3.09
2022-12-01T02:23:31.256Z,2.99
2022-12-01T02:26:49.154Z,3.02
2022-12-01T02:30:03.632Z,2.98
2022-12-01T02:33:23.681Z,2.84
2022-12-01T02:36:43.371Z,2.82
2022-12-01T02:39:58.022Z,2.75
2022-12-01T02:43:07.773Z,2.79
2022-12-01T02:46:20.659Z,3.08
2022-12-01T02:49:28.301Z,3.12
2022-12-01T02:52:30.938Z,3.04
2022-12-01T02:55:33.266Z,2.92
2022-12-01T02:58:35.502Z,2.84
2022-12-01T03:01:56.619Z,2.77
2022-12-01T03:05:32.208Z,2.75
2022-12-01T03:08:39.257Z,2.73
2022-12-01T03:12:03.280Z,2.71
2022-12-01T03:15:13.727Z,2.60
2022-12-01T03:18:30.779Z,2.59
2022-12-01T03:21:41.437Z,2.63
2022-12-01T03:24:48.084Z,2.64
2022-12-01T03:28:20.318Z,2.53
2022-12-01T03:31:24.393Z,2.50
2022-12-01T03:34:41.911Z,2.54
2022-12-01T03:37:56.964Z,2.64
2022-12-01T03:41:06.047Z,2.61
2022-12-01T03:44:14.011Z,2.55
2022-12-01T03:47:20.776Z,2.48
2022-12-01T03:50:29.172Z,2.54
2022-12-01T03:53:47.066Z,2.49
2022-12-01T03:56:56.712Z,2.40
2022-12-01T03:59:59.636Z,2.33
2022-12-01T04:03:05.941Z,2.37
2022-12-01T04:06:08.550Z,2.38
2022-12-01T04:09:10.651Z,2.37
2022-12-01T04:12:29.467Z,2.29
2022-12-01T04:15:31.681Z,2.34
2022-12-01T04:18:34.023Z,2.51
2022-12-01T04:21:36.188Z,2.75
2022-12-01T04:24:39.017Z,2.92
2022-12-01T04:27:41.178Z,2.97
2022-12-01T04:30:43.520Z,2.95
2022-12-01T04:33:45.674Z,3.04
2022-12-01T04:36:48.108Z,3.15
2022-12-01T04:39:50.327Z,3.18
2022-12-01T04:42:52.830Z,3.07
2022-12-01T04:45:54.885Z,2.87
2022-12-01T04:48:57.243Z,2.86
2022-12-01T04:51:59.375Z,2.65
2022-12-01T04:55:01.939Z,2.59
2022-12-01T04:58:04.953Z,2.64
2022-12-01T05:01:12.242Z,2.64
2022-12-01T05:04:15.396Z,2.60
2022-12-01T05:07:18.293Z,2.60
2022-12-01T05:10:20.699Z,2.61
2022-12-01T05:13:23.682Z,2.56
2022-12-01T05:16:34.307Z,2.54
2022-12-01T05:19:55.520Z,2.47
2022-12-01T05:23:05.824Z,2.42
2022-12-01T05:26:09.053Z,2.38
2022-12-01T05:29:12.462Z,2.40
2022-12-01T05:32:14.838Z,2.36
2022-12-01T05:35:17.045Z,2.31
2022-12-01T05:38:20.015Z,2.29
2022-12-01T05:41:22.301Z,2.25
2022-12-01T05:44:24.729Z,2.20
2022-12-01T05:47:26.898Z,2.13
2022-12-01T05:50:30.301Z,2.08
2022-12-01T05:53:32.506Z,2.07
2022-12-01T05:56:35.102Z,2.02
2022-12-01T05:59:37.258Z,2.05
2022-12-01T06:02:42.376Z,2.05
2022-12-01T06:05:44.731Z,1.96
2022-12-01T06:08:47.001Z,1.89
2022-12-01T06:11:52.489Z,1.88
2022-12-01T06:14:54.853Z,1.89
2022-12-01T06:18:00.404Z,1.81
2022-12-01T06:21:03.350Z,1.72
2022-12-01T06:24:06.109Z,1.78
2022-12-01T06:27:08.254Z,1.68
2022-12-01T06:30:11.184Z,1.49
2022-12-01T06:33:13.367Z,1.48
2022-12-01T06:36:16.019Z,1.58
2022-12-01T06:39:18.200Z,1.54
2022-12-01T06:42:20.640Z,1.49
2022-12-01T06:45:22.705Z,1.52
2022-12-01T06:48:25.088Z,1.48
2022-12-01T06:51:27.397Z,1.39
2022-12-01T06:54:30.409Z,1.48
2022-12-01T06:57:33.229Z,1.43
2022-12-01T07:00:35.937Z,1.28
2022-12-01T07:03:39.078Z,1.24
2022-12-01T07:06:41.503Z,1.38
2022-12-01T07:09:43.894Z,1.39
2022-12-01T07:12:46.388Z,1.45
2022-12-01T07:15:51.388Z,1.43
2022-12-01T07:18:53.939Z,1.36
2022-12-01T07:21:56.250Z,1.45
2022-12-01T07:24:58.837Z,1.49
2022-12-01T07:28:01.409Z,1.50
2022-12-01T07:31:05.997Z,1.50
2022-12-01T07:34:12.911Z,1.58
2022-12-01T07:37:17.375Z,1.62
2022-12-01T07:40:19.928Z,1.62
2022-12-01T07:43:22.501Z,1.60
2022-12-01T07:46:26.503Z,1.65
2022-12-01T07:49:29.131Z,1.64
2022-12-01T07:52:31.322Z,1.69
2022-12-01T07:55:33.822Z,1.75
2022-12-01T07:58:36.168Z,1.77
2022-12-01T08:01:44.083Z,1.81
2022-12-01T08:04:47.189Z,1.81
2022-12-01T08:07:49.466Z,1.93
2022-12-01T08:10:52.954Z,2.04
2022-12-01T08:13:55.141Z,2.09
2022-12-01T08:16:57.491Z,2.13
2022-12-01T08:19:59.700Z,2.23
2022-12-01T08:23:02.767Z,2.35
2022-12-01T08:26:08.569Z,2.40
2022-12-01T08:29:13.608Z,2.42
2022-12-01T08:32:19.211Z,2.51
2022-12-01T08:35:21.973Z,2.56
2022-12-01T08:38:24.132Z,2.70
2022-12-01T08:41:26.724Z,2.68
2022-12-01T08:44:28.904Z,2.75
2022-12-01T08:47:31.294Z,2.86
2022-12-01T08:50:33.445Z,2.93
2022-12-01T08:53:45.169Z,3.03
2022-12-01T08:56:47.831Z,3.17
2022-12-01T08:59:50.608Z,3.26
2022-12-01T09:02:53.159Z,3.53
2022-12-01T09:06:01.730Z,3.71
2022-12-01T09:09:03.964Z,3.84
2022-12-01T09:12:07.466Z,4.03
2022-12-01T09:15:10.031Z,4.06
2022-12-01T09:18:12.429Z,4.20
2022-12-01T09:21:20.635Z,4.31
2022-12-01T09:24:23.841Z,4.52
2022-12-01T09:27:26.058Z,4.66
2022-12-01T09:30:28.944Z,4.78
2022-12-01T09:33:31.487Z,4.93
2022-12-01T09:36:35.677Z,5.11
2022-12-01T09:39:38.194Z,5.19
2022-12-01T09:42:41.217Z,5.30
2022-12-01T09:45:48.496Z,5.45
2022-12-01T09:48:54.049Z,5.57
2022-12-01T09:51:56.217Z,5.72
2022-12-01T09:55:00.321Z,5.77
2022-12-01T09:58:04.229Z,5.79
2022-12-01T10:01:15.694Z,5.87
2022-12-01T10:04:36.087Z,5.92
2022-12-01T10:07:47.706Z,5.84
2022-12-01T10:10:54.929Z,5.80
2022-12-01T10:13:58.701Z,5.89
2022-12-01T10:17:16.947Z,5.96
2022-12-01T10:20:44.619Z,6.05
2022-12-01T10:24:15.201Z,6.04
2022-12-01T10:27:49.505Z,6.06
2022-12-01T10:30:53.108Z,5.98
2022-12-01T10:34:06.262Z,6.10
2022-12-01T10:37:18.678Z,6.26
2022-12-01T10:40:21.126Z,6.45
2022-12-01T10:43:41.009Z,6.57
2022-12-01T10:46:54.611Z,6.74
2022-12-01T10:49:57.402Z,6.93
2022-12-01T10:52:59.864Z,6.99
2022-12-01T10:56:10.422Z,7.03
2022-12-01T10:59:26.070Z,6.97
2022-12-01T11:02:30.929Z,7.11
2022-12-01T11:05:39.192Z,7.12
2022-12-01T11:08:46.900Z,7.00
2022-12-01T11:11:56.795Z,6.84
2022-12-01T11:14:59.729Z,6.77
2022-12-01T11:18:05.750Z,6.89
2022-12-01T11:21:26.507Z,6.95
2022-12-01T11:24:43.906Z,7.01
2022-12-01T11:28:01.436Z,6.87
2022-12-01T11:31:08.772Z,6.96
2022-12-01T11:34:38.402Z,7.02
2022-12-01T11:41:30.463Z,7.27
2022-12-01T11:44:51.075Z,7.49
2022-12-01T11:48:12.541Z,7.61
2022-12-01T11:51:17.792Z,7.71
2022-12-01T11:54:25.104Z,7.72
2022-12-01T11:57:34.864Z,7.62
2022-12-01T12:00:56.208Z,7.37
2022-12-01T12:04:16.036Z,7.26
2022-12-01T12:07:26.615Z,7.27
2022-12-01T12:10:32.036Z,7.23
2022-12-01T12:13:55.996Z,7.28
2022-12-01T12:17:29.567Z,7.28
2022-12-01T12:20:45.546Z,7.41
2022-12-01T12:24:17.017Z,7.45
2022-12-01T12:27:19.269Z,7.43
2022-12-01T12:30:29.822Z,7.60
2022-12-01T12:33:58.862Z,7.74
2022-12-01T12:37:04.391Z,7.79
2022-12-01T12:40:17.782Z,7.92
2022-12-01T12:43:25.409Z,7.83
2022-12-01T12:46:40.206Z,7.81
2022-12-01T12:50:19.972Z,7.81
2022-12-01T12:53:27.774Z,7.88
2022-12-01T12:56:34.076Z,7.86
2022-12-01T12:59:48.701Z,7.88
2022-12-01T13:03:02.126Z,7.89
2022-12-01T13:06:12.813Z,7.84
2022-12-01T13:09:27.075Z,7.80
2022-12-01T13:12:33.453Z,7.83
2022-12-01T13:15:37.923Z,7.89
2022-12-01T13:18:49.178Z,7.84
2022-12-01T13:21:53.019Z,7.83
2022-12-01T13:24:55.281Z,7.89
2022-12-01T13:28:00.568Z,7.78
2022-12-01T13:31:06.330Z,7.78
2022-12-01T13:34:20.829Z,7.85
2022-12-01T13:37:33.138Z,7.83
2022-12-01T13:40:35.895Z,7.79
2022-12-01T13:43:52.074Z,7.79
2022-12-01T13:47:23.567Z,7.69
2022-12-01T13:50:42.984Z,7.70
2022-12-01T13:54:25.581Z,7.72
2022-12-01T13:57:30.128Z,7.68
2022-12-01T14:00:34.833Z,7.63
2022-12-01T14:03:40.117Z,7.65
2022-12-01T14:06:50.603Z,7.64
2022-12-01T14:09:57.353Z,7.54
2022-12-01T14:13:04.227Z,7.49
2022-12-01T14:16:08.406Z,7.45
2022-12-01T14:19:36.893Z,7.31
2022-12-01T14:22:43.951Z,7.28
2022-12-01T14:26:12.559Z,7.19
2022-12-01T14:29:38.729Z,7.19
2022-12-01T14:32:40.824Z,7.10
2022-12-01T14:35:43.339Z,6.99
2022-12-01T14:38:47.541Z,6.85
2022-12-01T14:41:56.597Z,6.75
2022-12-01T14:44:58.925Z,6.74
2022-12-01T14:48:04.254Z,6.69
2022-12-01T14:51:32.971Z,6.62
2022-12-01T14:54:49.434Z,6.45
2022-12-01T14:58:00.095Z,6.36
2022-12-01T15:01:12.746Z,6.36
2022-12-01T15:04:15.475Z,6.36
2022-12-01T15:07:22.912Z,6.33
2022-12-01T15:10:35.061Z,6.33
2022-12-01T15:13:52.908Z,6.31
2022-12-01T15:16:55.448Z,6.26
2022-12-01T15:19:58.875Z,6.20
2022-12-01T15:23:02.679Z,6.17
2022-12-01T15:26:05.342Z,6.19
2022-12-01T15:29:46.878Z,6.12
2022-12-01T15:32:50.057Z,6.16
2022-12-01T15:35:53.228Z,6.09
2022-12-01T15:38:56.115Z,6.03
2022-12-01T15:41:58.787Z,5.98
2022-12-01T15:45:17.637Z,5.94
2022-12-01T15:48:28.994Z,5.90
2022-12-01T15:51:32.064Z,5.84
2022-12-01T15:54:34.729Z,5.81
2022-12-01T15:57:38.477Z,5.66
2022-12-01T16:00:40.737Z,5.63
2022-12-01T16:03:50.806Z,5.63
2022-12-01T16:07:06.999Z,5.63
2022-12-01T16:10:32.477Z,5.64
2022-12-01T16:13:48.111Z,5.60
2022-12-01T16:16:51.473Z,5.57
2022-12-01T16:20:15.874Z,5.52
2022-12-01T16:23:25.367Z,5.51
2022-12-01T16:26:28.539Z,5.57
2022-12-01T16:29:43.933Z,5.52
2022-12-01T16:32:49.291Z,5.46
2022-12-01T16:35:52.994Z,5.44
2022-12-01T16:38:55.176Z,5.41
2022-12-01T16:42:00.271Z,5.40
2022-12-01T16:45:04.847Z,5.36
2022-12-01T16:48:09.554Z,5.32
2022-12-01T16:51:14.598Z,5.38
2022-12-01T16:54:17.181Z,5.38
2022-12-01T16:57:19.439Z,5.32
2022-12-01T17:00:23.147Z,5.28
2022-12-01T17:03:27.999Z,5.29
2022-12-01T17:06:32.178Z,5.29
2022-12-01T17:09:34.327Z,5.33
2022-12-01T17:12:36.927Z,5.37
2022-12-01T17:15:44.294Z,5.33
2022-12-01T17:18:46.783Z,5.22
2022-12-01T17:21:48.938Z,5.23
2022-12-01T17:24:51.604Z,5.23
2022-12-01T17:27:54.118Z,5.14
2022-12-01T17:31:00.480Z,5.13
2022-12-01T17:34:02.717Z,5.14
2022-12-01T17:37:05.415Z,5.06
2022-12-01T17:40:11.188Z,5.00
2022-12-01T17:43:13.647Z,4.92
2022-12-01T17:46:16.450Z,4.85
2022-12-01T17:49:19.242Z,4.73
2022-12-01T17:52:24.195Z,4.70
2022-12-01T17:55:30.497Z,4.72
2022-12-01T17:58:33.678Z,4.58
2022-12-01T18:01:36.465Z,4.44
2022-12-01T18:04:39.351Z,4.44
2022-12-01T18:07:41.821Z,4.43
2022-12-01T18:10:44.358Z,4.30
2022-12-01T18:13:49.487Z,4.13
2022-12-01T18:16:52.854Z,4.17
2022-12-01T18:19:56.217Z,4.17
2022-12-01T18:22:58.857Z,4.06
2022-12-01T18:26:08.664Z,4.01
2022-12-01T18:29:18.500Z,4.03
2022-12-01T18:32:21.049Z,4.05
2022-12-01T18:35:30.329Z,3.98
2022-12-01T18:38:34.245Z,4.00
2022-12-01T18:41:37.117Z,3.90
2022-12-01T18:44:39.360Z,3.85
2022-12-01T18:47:44.695Z,3.77
2022-12-01T18:50:49.396Z,3.79
2022-12-01T18:53:57.889Z,3.76
2022-12-01T18:57:00.246Z,3.72
2022-12-01T19:00:06.176Z,3.64
2022-12-01T19:03:08.332Z,3.57
2022-12-01T19:06:12.553Z,3.61
2022-12-01T19:09:16.151Z,3.59
2022-12-01T19:12:18.957Z,3.54
2022-12-01T19:15:21.379Z,3.55
2022-12-01T19:18:25.910Z,3.50
2022-12-01T19:21:28.233Z,3.44
2022-12-01T19:24:31.678Z,3.42
2022-12-01T19:27:34.720Z,3.36
2022-12-01T19:30:41.003Z,3.30
2022-12-01T19:33:46.573Z,3.31
2022-12-01T19:36:52.178Z,3.28
2022-12-01T19:39:56.753Z,3.28
2022-12-01T19:42:59.457Z,3.28
2022-12-01T19:46:10.016Z,3.13
2022-12-01T19:49:13.252Z,3.10
2022-12-01T19:52:16.919Z,2.94
2022-12-01T19:55:20.745Z,3.04
2022-12-01T19:58:24.881Z,3.01
2022-12-01T20:01:27.861Z,2.96
2022-12-01T20:04:30.948Z,2.93
2022-12-01T20:07:33.113Z,2.93
2022-12-01T20:10:35.737Z,2.76
2022-12-01T20:13:40.284Z,2.80
2022-12-01T20:16:43.794Z,2.67
2022-12-01T20:19:46.372Z,2.64
2022-12-01T20:22:48.868Z,2.63
2022-12-01T20:25:52.312Z,2.71
2022-12-01T20:28:59.025Z,2.63
2022-12-01T20:32:03.033Z,2.60
2022-12-01T20:35:08.946Z,2.50
2022-12-01T20:38:11.181Z,2.50
2022-12-01T20:41:14.614Z,2.39
2022-12-01T20:44:17.919Z,2.32
2022-12-01T20:47:21.170Z,2.34
2022-12-01T20:50:23.801Z,2.40
2022-12-01T20:53:26.229Z,2.34
2022-12-01T20:56:28.568Z,2.41
2022-12-01T20:59:31.092Z,2.39
2022-12-01T21:02:33.259Z,2.30
2022-12-01T21:05:39.098Z,2.30
2022-12-01T21:08:44.061Z,2.28
2022-12-01T21:12:08.684Z,2.24
2022-12-01T21:15:28.007Z,2.17
2022-12-01T21:18:55.761Z,2.14
2022-12-01T21:21:58.745Z,2.08
2022-12-01T21:25:15.700Z,1.91
2022-12-01T21:28:24.789Z,1.95
2022-12-01T21:31:27.487Z,1.89
2022-12-01T21:34:29.881Z,1.81
2022-12-01T21:37:32.409Z,1.87
2022-12-01T21:40:34.522Z,1.82
2022-12-01T21:43:38.588Z,1.63
2022-12-01T21:46:42.379Z,1.79
2022-12-01T21:49:45.859Z,1.64
2022-12-01T21:52:48.553Z,1.59
2022-12-01T21:55:50.981Z,1.57
2022-12-01T21:58:55.298Z,1.60
2022-12-01T22:01:57.869Z,1.57
2022-12-01T22:05:00.419Z,1.55
2022-12-01T22:08:22.774Z,1.46
2022-12-01T22:11:28.980Z,1.50
2022-12-01T22:14:36.062Z,1.53
2022-12-01T22:17:40.970Z,1.42
2022-12-01T22:20:43.549Z,1.35
2022-12-01T22:23:48.805Z,1.30
2022-12-01T22:26:58.951Z,1.35
2022-12-01T22:30:10.438Z,1.39
2022-12-01T22:33:23.378Z,1.42
2022-12-01T22:36:32.866Z,1.43
2022-12-01T22:39:35.363Z,1.42
2022-12-01T22:42:37.921Z,1.30
2022-12-01T22:45:42.293Z,1.46
2022-12-01T22:48:53.220Z,1.56
2022-12-01T22:52:18.846Z,1.59
2022-12-01T22:55:21.441Z,1.58
2022-12-01T22:58:40.764Z,1.58
2022-12-01T23:01:57.653Z,1.61
2022-12-01T23:05:14.276Z,1.67
2022-12-01T23:08:22.458Z,1.62
2022-12-01T23:11:25.614Z,1.66
2022-12-01T23:14:28.811Z,1.65
2022-12-01T23:17:34.317Z,1.65
2022-12-01T23:20:38.217Z,1.61
2022-12-01T23:23:40.362Z,1.60
2022-12-01T23:26:46.174Z,1.71
2022-12-01T23:29:48.630Z,1.63
2022-12-01T23:32:59.580Z,1.64
2022-12-01T23:36:22.597Z,1.59
2022-12-01T23:39:32.609Z,1.66
2022-12-01T23:42:34.755Z,1.73
2022-12-01T23:45:37.712Z,1.71
2022-12-01T23:48:46.206Z,1.78
2022-12-01T23:51:59.228Z,1.82
2022-12-01T23:55:02.499Z,1.85
2022-12-01T23:58:05.301Z,1.92
